Kezdőlap
METAR-TAF:

METAR-TAF

Repülőterek :

Shōnai, Japán

földrajzi szélesség: 38-49N, földrajzi hosszúság: 139-47E, magasság: 22 m

Jelenlegi meteorológiai megfigyelések

A jelentés 5 órával és 34 perccel ezelõtt készült, 12:35 UTC
Északi szél 4 kt, nyugat-északnyugati és észak-északkeleti között változik
Hőmérséklet 15°C
Páratartalom 94%
Légköri nyomás 998 hPa
Látótávolság: 6000 m
Kevés felhő 200 lábon
Szórványos felhőzet 2000 lábon
Szakadozott felhőzet 4000 lábon
esõ

METAR: RJSY 281235Z 35004KT 300V030 6000 RA FEW002 SCT020 BKN040 15/14 Q0998 RMK 1ST002 3SC020 6SC040 A2948

Idő: 03:09 (18:09 UTC)


TAF: hiányzik

Meteorológiai megfigyelések és előrejelzések több, mint 4000 repülőtéren (METAR és TAF jelentéseket).

A térképen piros és sárga pontok jelzik az elérhető meteorológiai állomásokat.

Mozgassa az egeret a pont fölött, hogy megjelenjen az állomás neve.

Azután kattintson az időjárási megfigyelések és előrejelzések megtekintéséhez.

A térkép megváltoztatása: kattintson a fekete keresztel jelölt zöld gombra ráközelítéshez, a vonallal jelölt zöld gombra távolításhoz, vagy a zöld nyilakra a szomszédos térképek eléréséhez.


METAR-TAF: